sensor_id;sensor_type;location;lat;lon;timestamp;temperature;humidity
16700;DHT22;8466;52.286;21.124;2023-05-23T00:01:54;9.60;99.90
16700;DHT22;8466;52.286;21.124;2023-05-23T00:04:27;9.60;99.90
16700;DHT22;8466;52.286;21.124;2023-05-23T00:06:58;9.50;99.90
16700;DHT22;8466;52.286;21.124;2023-05-23T00:09:29;9.50;99.90
16700;DHT22;8466;52.286;21.124;2023-05-23T00:12:02;9.40;99.90
16700;DHT22;8466;52.286;21.124;2023-05-23T00:14:43;9.40;99.90
16700;DHT22;8466;52.286;21.124;2023-05-23T00:17:18;9.40;99.90
16700;DHT22;8466;52.286;21.124;2023-05-23T00:19:51;9.40;99.90
16700;DHT22;8466;52.286;21.124;2023-05-23T00:22:24;9.30;99.90
16700;DHT22;8466;52.286;21.124;2023-05-23T00:24:56;9.30;99.90
16700;DHT22;8466;52.286;21.124;2023-05-23T00:27:35;9.20;99.90
16700;DHT22;8466;52.286;21.124;2023-05-23T00:30:09;9.30;99.90
16700;DHT22;8466;52.286;21.124;2023-05-23T00:32:41;9.20;99.90
16700;DHT22;8466;52.286;21.124;2023-05-23T00:35:10;9.20;99.90
16700;DHT22;8466;52.286;21.124;2023-05-23T00:37:44;9.20;99.90
16700;DHT22;8466;52.286;21.124;2023-05-23T00:40:16;9.10;99.90
16700;DHT22;8466;52.286;21.124;2023-05-23T00:42:46;9.10;99.90
16700;DHT22;8466;52.286;21.124;2023-05-23T00:45:20;9.10;99.90
16700;DHT22;8466;52.286;21.124;2023-05-23T00:47:49;9.10;99.90
16700;DHT22;8466;52.286;21.124;2023-05-23T00:50:22;9.10;99.90
16700;DHT22;8466;52.286;21.124;2023-05-23T00:52:58;9.00;99.90
16700;DHT22;8466;52.286;21.124;2023-05-23T00:55:28;9.00;99.90
16700;DHT22;8466;52.286;21.124;2023-05-23T00:58:01;9.00;99.90
16700;DHT22;8466;52.286;21.124;2023-05-23T01:00:38;8.90;99.90
16700;DHT22;8466;52.286;21.124;2023-05-23T01:03:08;8.90;99.90
16700;DHT22;8466;52.286;21.124;2023-05-23T01:05:52;8.90;99.90
16700;DHT22;8466;52.286;21.124;2023-05-23T01:08:21;8.80;99.90
16700;DHT22;8466;52.286;21.124;2023-05-23T01:10:50;8.80;99.90
16700;DHT22;8466;52.286;21.124;2023-05-23T01:13:30;8.80;99.90
16700;DHT22;8466;52.286;21.124;2023-05-23T01:16:07;8.80;99.90
16700;DHT22;8466;52.286;21.124;2023-05-23T01:18:47;8.80;99.90
16700;DHT22;8466;52.286;21.124;2023-05-23T01:21:22;9.00;99.90
16700;DHT22;8466;52.286;21.124;2023-05-23T01:24:29;8.70;99.90
16700;DHT22;8466;52.286;21.124;2023-05-23T01:27:08;8.70;99.90
16700;DHT22;8466;52.286;21.124;2023-05-23T01:29:50;8.60;99.90
16700;DHT22;8466;52.286;21.124;2023-05-23T01:32:24;8.60;99.90
16700;DHT22;8466;52.286;21.124;2023-05-23T01:34:53;8.50;99.90
16700;DHT22;8466;52.286;21.124;2023-05-23T01:37:22;8.50;99.90
16700;DHT22;8466;52.286;21.124;2023-05-23T01:39:51;8.40;99.90
16700;DHT22;8466;52.286;21.124;2023-05-23T01:42:26;8.40;99.90
16700;DHT22;8466;52.286;21.124;2023-05-23T01:44:57;8.40;99.90
16700;DHT22;8466;52.286;21.124;2023-05-23T01:47:29;8.40;99.90
16700;DHT22;8466;52.286;21.124;2023-05-23T01:50:01;8.30;99.90
16700;DHT22;8466;52.286;21.124;2023-05-23T01:52:30;8.30;99.90
16700;DHT22;8466;52.286;21.124;2023-05-23T01:55:05;8.30;99.90
16700;DHT22;8466;52.286;21.124;2023-05-23T01:57:53;8.20;99.90
16700;DHT22;8466;52.286;21.124;2023-05-23T02:00:24;8.20;99.90
16700;DHT22;8466;52.286;21.124;2023-05-23T02:02:53;8.10;99.90
16700;DHT22;8466;52.286;21.124;2023-05-23T02:05:24;8.10;99.90
16700;DHT22;8466;52.286;21.124;2023-05-23T02:08:00;8.10;99.90
16700;DHT22;8466;52.286;21.124;2023-05-23T02:10:35;8.00;99.90
16700;DHT22;8466;52.286;21.124;2023-05-23T02:13:16;8.10;99.90
16700;DHT22;8466;52.286;21.124;2023-05-23T02:15:50;8.10;99.90
16700;DHT22;8466;52.286;21.124;2023-05-23T02:18:19;8.00;99.90
16700;DHT22;8466;52.286;21.124;2023-05-23T02:20:48;8.00;99.90
16700;DHT22;8466;52.286;21.124;2023-05-23T02:23:18;8.00;99.90
16700;DHT22;8466;52.286;21.124;2023-05-23T02:25:47;8.00;99.90
16700;DHT22;8466;52.286;21.124;2023-05-23T02:28:16;8.00;99.90
16700;DHT22;8466;52.286;21.124;2023-05-23T02:30:49;8.00;99.90
16700;DHT22;8466;52.286;21.124;2023-05-23T02:33:18;7.90;99.90
16700;DHT22;8466;52.286;21.124;2023-05-23T02:35:50;7.90;99.90
16700;DHT22;8466;52.286;21.124;2023-05-23T02:38:22;7.90;99.90
16700;DHT22;8466;52.286;21.124;2023-05-23T02:40:56;7.90;99.90
16700;DHT22;8466;52.286;21.124;2023-05-23T02:43:32;7.90;99.90
16700;DHT22;8466;52.286;21.124;2023-05-23T02:46:06;7.90;99.90
16700;DHT22;8466;52.286;21.124;2023-05-23T02:48:35;8.00;99.90
16700;DHT22;8466;52.286;21.124;2023-05-23T02:51:07;8.00;99.90
16700;DHT22;8466;52.286;21.124;2023-05-23T02:53:37;8.00;99.90
16700;DHT22;8466;52.286;21.124;2023-05-23T02:56:07;8.00;99.90
16700;DHT22;8466;52.286;21.124;2023-05-23T02:58:36;8.10;99.90
16700;DHT22;8466;52.286;21.124;2023-05-23T03:01:10;8.10;99.90
16700;DHT22;8466;52.286;21.124;2023-05-23T03:03:40;8.20;99.90
16700;DHT22;8466;52.286;21.124;2023-05-23T03:06:13;8.20;99.90
16700;DHT22;8466;52.286;21.124;2023-05-23T03:08:43;8.30;99.90
16700;DHT22;8466;52.286;21.124;2023-05-23T03:11:13;8.30;99.90
16700;DHT22;8466;52.286;21.124;2023-05-23T03:13:42;8.40;99.90
16700;DHT22;8466;52.286;21.124;2023-05-23T03:16:13;8.40;99.90
16700;DHT22;8466;52.286;21.124;2023-05-23T03:18:43;8.40;99.90
16700;DHT22;8466;52.286;21.124;2023-05-23T03:21:12;8.40;99.90
16700;DHT22;8466;52.286;21.124;2023-05-23T03:23:40;8.50;99.90
16700;DHT22;8466;52.286;21.124;2023-05-23T03:26:10;8.50;99.90
16700;DHT22;8466;52.286;21.124;2023-05-23T03:28:39;8.60;99.90
16700;DHT22;8466;52.286;21.124;2023-05-23T03:31:07;8.70;99.90
16700;DHT22;8466;52.286;21.124;2023-05-23T03:33:38;8.80;99.90
16700;DHT22;8466;52.286;21.124;2023-05-23T03:36:06;8.90;99.90
16700;DHT22;8466;52.286;21.124;2023-05-23T03:38:35;9.00;99.90
16700;DHT22;8466;52.286;21.124;2023-05-23T03:41:04;9.00;99.90
16700;DHT22;8466;52.286;21.124;2023-05-23T03:43:33;9.10;99.90
16700;DHT22;8466;52.286;21.124;2023-05-23T03:46:02;9.20;99.90
16700;DHT22;8466;52.286;21.124;2023-05-23T03:48:31;9.30;99.90
16700;DHT22;8466;52.286;21.124;2023-05-23T03:51:01;9.50;99.90
16700;DHT22;8466;52.286;21.124;2023-05-23T03:53:30;9.60;99.90
16700;DHT22;8466;52.286;21.124;2023-05-23T03:56:01;9.90;99.90
16700;DHT22;8466;52.286;21.124;2023-05-23T03:58:29;10.00;99.90
16700;DHT22;8466;52.286;21.124;2023-05-23T04:00:58;10.40;99.90
16700;DHT22;8466;52.286;21.124;2023-05-23T04:03:29;10.90;99.90
16700;DHT22;8466;52.286;21.124;2023-05-23T04:06:01;11.30;99.90
16700;DHT22;8466;52.286;21.124;2023-05-23T04:08:30;11.70;99.90
16700;DHT22;8466;52.286;21.124;2023-05-23T04:11:00;12.60;99.90
16700;DHT22;8466;52.286;21.124;2023-05-23T04:13:29;14.60;99.90
16700;DHT22;8466;52.286;21.124;2023-05-23T04:15:59;16.60;99.90
16700;DHT22;8466;52.286;21.124;2023-05-23T04:18:31;18.60;99.90
16700;DHT22;8466;52.286;21.124;2023-05-23T04:21:02;20.30;99.90
16700;DHT22;8466;52.286;21.124;2023-05-23T04:23:31;21.60;95.80
16700;DHT22;8466;52.286;21.124;2023-05-23T04:25:59;22.60;92.20
16700;DHT22;8466;52.286;21.124;2023-05-23T04:28:28;23.20;90.00
16700;DHT22;8466;52.286;21.124;2023-05-23T04:30:57;23.80;85.50
16700;DHT22;8466;52.286;21.124;2023-05-23T04:33:26;24.30;82.30
16700;DHT22;8466;52.286;21.124;2023-05-23T04:35:56;24.60;80.20
16700;DHT22;8466;52.286;21.124;2023-05-23T04:38:26;24.70;78.80
16700;DHT22;8466;52.286;21.124;2023-05-23T04:40:55;24.70;77.10
16700;DHT22;8466;52.286;21.124;2023-05-23T04:43:24;24.20;76.50
16700;DHT22;8466;52.286;21.124;2023-05-23T04:45:55;23.40;78.20
16700;DHT22;8466;52.286;21.124;2023-05-23T04:48:24;22.30;80.90
16700;DHT22;8466;52.286;21.124;2023-05-23T04:50:53;21.10;83.30
16700;DHT22;8466;52.286;21.124;2023-05-23T04:53:22;19.90;88.00
16700;DHT22;8466;52.286;21.124;2023-05-23T04:55:52;19.00;91.00
16700;DHT22;8466;52.286;21.124;2023-05-23T04:58:21;18.50;93.10
16700;DHT22;8466;52.286;21.124;2023-05-23T05:00:50;18.40;94.30
16700;DHT22;8466;52.286;21.124;2023-05-23T05:03:19;18.10;94.90
16700;DHT22;8466;52.286;21.124;2023-05-23T05:05:48;17.70;95.80
16700;DHT22;8466;52.286;21.124;2023-05-23T05:08:16;17.40;97.10
16700;DHT22;8466;52.286;21.124;2023-05-23T05:10:47;17.10;98.50
16700;DHT22;8466;52.286;21.124;2023-05-23T05:13:17;16.90;99.90
16700;DHT22;8466;52.286;21.124;2023-05-23T05:15:49;16.70;99.90
16700;DHT22;8466;52.286;21.124;2023-05-23T05:18:19;16.60;99.90
16700;DHT22;8466;52.286;21.124;2023-05-23T05:20:47;16.50;99.90
16700;DHT22;8466;52.286;21.124;2023-05-23T05:23:16;16.40;99.90
16700;DHT22;8466;52.286;21.124;2023-05-23T05:25:45;16.40;99.90
16700;DHT22;8466;52.286;21.124;2023-05-23T05:28:14;16.40;99.90
16700;DHT22;8466;52.286;21.124;2023-05-23T05:30:44;16.40;99.90
16700;DHT22;8466;52.286;21.124;2023-05-23T05:33:12;16.40;99.90
16700;DHT22;8466;52.286;21.124;2023-05-23T05:35:41;16.50;99.90
16700;DHT22;8466;52.286;21.124;2023-05-23T05:38:10;16.50;99.90
16700;DHT22;8466;52.286;21.124;2023-05-23T05:40:39;16.60;99.90
16700;DHT22;8466;52.286;21.124;2023-05-23T05:43:08;16.70;99.90
16700;DHT22;8466;52.286;21.124;2023-05-23T05:45:37;16.80;99.90
16700;DHT22;8466;52.286;21.124;2023-05-23T05:48:07;16.80;99.90
16700;DHT22;8466;52.286;21.124;2023-05-23T05:50:39;17.00;99.90
16700;DHT22;8466;52.286;21.124;2023-05-23T05:53:12;17.00;99.90
16700;DHT22;8466;52.286;21.124;2023-05-23T05:55:40;17.10;99.90
16700;DHT22;8466;52.286;21.124;2023-05-23T05:58:09;17.20;99.90
16700;DHT22;8466;52.286;21.124;2023-05-23T06:00:38;17.20;99.90
16700;DHT22;8466;52.286;21.124;2023-05-23T06:03:11;17.40;99.90
16700;DHT22;8466;52.286;21.124;2023-05-23T06:05:40;17.40;99.90
16700;DHT22;8466;52.286;21.124;2023-05-23T06:08:09;17.50;99.90
16700;DHT22;8466;52.286;21.124;2023-05-23T06:10:38;17.60;99.90
16700;DHT22;8466;52.286;21.124;2023-05-23T06:13:07;17.70;99.90
16700;DHT22;8466;52.286;21.124;2023-05-23T06:15:36;17.80;99.90
16700;DHT22;8466;52.286;21.124;2023-05-23T06:18:05;17.90;99.70
16700;DHT22;8466;52.286;21.124;2023-05-23T06:20:35;18.00;99.90
16700;DHT22;8466;52.286;21.124;2023-05-23T06:23:04;18.00;99.90
16700;DHT22;8466;52.286;21.124;2023-05-23T06:25:34;18.10;99.90
16700;DHT22;8466;52.286;21.124;2023-05-23T06:28:03;17.90;99.90
16700;DHT22;8466;52.286;21.124;2023-05-23T06:30:32;18.30;99.90
16700;DHT22;8466;52.286;21.124;2023-05-23T06:33:03;18.40;99.90
16700;DHT22;8466;52.286;21.124;2023-05-23T06:35:32;18.40;99.90
16700;DHT22;8466;52.286;21.124;2023-05-23T06:38:02;18.50;99.90
16700;DHT22;8466;52.286;21.124;2023-05-23T06:40:31;18.50;99.90
16700;DHT22;8466;52.286;21.124;2023-05-23T06:42:59;18.50;98.90
16700;DHT22;8466;52.286;21.124;2023-05-23T06:45:28;18.60;96.30
16700;DHT22;8466;52.286;21.124;2023-05-23T06:47:57;18.70;96.00
16700;DHT22;8466;52.286;21.124;2023-05-23T06:50:27;18.90;94.80
16700;DHT22;8466;52.286;21.124;2023-05-23T06:52:56;18.90;96.50
16700;DHT22;8466;52.286;21.124;2023-05-23T06:55:26;19.10;94.30
16700;DHT22;8466;52.286;21.124;2023-05-23T06:57:55;19.20;93.90
16700;DHT22;8466;52.286;21.124;2023-05-23T07:00:23;19.20;92.90
16700;DHT22;8466;52.286;21.124;2023-05-23T07:02:52;19.30;92.30
16700;DHT22;8466;52.286;21.124;2023-05-23T07:05:21;19.40;92.20
16700;DHT22;8466;52.286;21.124;2023-05-23T07:07:50;19.40;93.40
16700;DHT22;8466;52.286;21.124;2023-05-23T07:10:18;19.50;93.20
16700;DHT22;8466;52.286;21.124;2023-05-23T07:12:48;19.60;92.60
16700;DHT22;8466;52.286;21.124;2023-05-23T07:15:17;19.70;90.70
16700;DHT22;8466;52.286;21.124;2023-05-23T07:17:46;19.80;91.10
16700;DHT22;8466;52.286;21.124;2023-05-23T07:20:15;19.80;90.30
16700;DHT22;8466;52.286;21.124;2023-05-23T07:22:43;19.90;89.40
16700;DHT22;8466;52.286;21.124;2023-05-23T07:25:12;20.00;87.40
16700;DHT22;8466;52.286;21.124;2023-05-23T07:27:41;20.10;90.10
16700;DHT22;8466;52.286;21.124;2023-05-23T07:30:11;20.10;87.00
16700;DHT22;8466;52.286;21.124;2023-05-23T07:32:40;20.10;85.00
16700;DHT22;8466;52.286;21.124;2023-05-23T07:35:09;20.20;86.90
16700;DHT22;8466;52.286;21.124;2023-05-23T07:37:37;20.20;85.60
16700;DHT22;8466;52.286;21.124;2023-05-23T07:40:07;20.30;84.40
16700;DHT22;8466;52.286;21.124;2023-05-23T07:42:36;20.30;86.50
16700;DHT22;8466;52.286;21.124;2023-05-23T07:45:06;20.40;85.00
16700;DHT22;8466;52.286;21.124;2023-05-23T07:47:36;20.50;82.50
16700;DHT22;8466;52.286;21.124;2023-05-23T07:50:06;20.50;86.00
16700;DHT22;8466;52.286;21.124;2023-05-23T07:52:36;20.60;87.10
16700;DHT22;8466;52.286;21.124;2023-05-23T07:55:06;20.60;89.00
16700;DHT22;8466;52.286;21.124;2023-05-23T07:57:34;20.70;85.10
16700;DHT22;8466;52.286;21.124;2023-05-23T08:00:04;20.80;83.90
16700;DHT22;8466;52.286;21.124;2023-05-23T08:02:33;20.90;84.50
16700;DHT22;8466;52.286;21.124;2023-05-23T08:05:03;20.90;84.50
16700;DHT22;8466;52.286;21.124;2023-05-23T08:07:33;20.90;83.50
16700;DHT22;8466;52.286;21.124;2023-05-23T08:10:02;21.00;81.40
16700;DHT22;8466;52.286;21.124;2023-05-23T08:12:31;21.10;82.90
16700;DHT22;8466;52.286;21.124;2023-05-23T08:14:59;21.20;80.30
16700;DHT22;8466;52.286;21.124;2023-05-23T08:17:28;21.30;77.50
16700;DHT22;8466;52.286;21.124;2023-05-23T08:19:57;21.30;77.90
16700;DHT22;8466;52.286;21.124;2023-05-23T08:22:28;21.30;77.50
16700;DHT22;8466;52.286;21.124;2023-05-23T08:24:57;21.40;75.20
16700;DHT22;8466;52.286;21.124;2023-05-23T08:27:26;21.40;77.40
16700;DHT22;8466;52.286;21.124;2023-05-23T08:29:56;21.50;77.90
16700;DHT22;8466;52.286;21.124;2023-05-23T08:32:26;21.50;76.00
16700;DHT22;8466;52.286;21.124;2023-05-23T08:34:54;21.60;73.70
16700;DHT22;8466;52.286;21.124;2023-05-23T08:37:23;21.60;76.20
16700;DHT22;8466;52.286;21.124;2023-05-23T08:39:53;21.70;74.80
16700;DHT22;8466;52.286;21.124;2023-05-23T08:42:22;21.60;73.30
16700;DHT22;8466;52.286;21.124;2023-05-23T08:44:51;21.60;71.30
16700;DHT22;8466;52.286;21.124;2023-05-23T08:47:20;21.60;75.20
16700;DHT22;8466;52.286;21.124;2023-05-23T08:49:51;21.70;72.80
16700;DHT22;8466;52.286;21.124;2023-05-23T08:52:23;21.80;71.60
16700;DHT22;8466;52.286;21.124;2023-05-23T08:54:54;21.80;73.60
16700;DHT22;8466;52.286;21.124;2023-05-23T08:57:23;21.80;72.20
16700;DHT22;8466;52.286;21.124;2023-05-23T08:59:53;21.80;70.70
16700;DHT22;8466;52.286;21.124;2023-05-23T09:02:23;21.90;71.40
16700;DHT22;8466;52.286;21.124;2023-05-23T09:04:52;22.00;72.00
16700;DHT22;8466;52.286;21.124;2023-05-23T09:07:22;22.00;69.60
16700;DHT22;8466;52.286;21.124;2023-05-23T09:09:50;22.10;71.70
16700;DHT22;8466;52.286;21.124;2023-05-23T09:12:20;22.00;72.50
16700;DHT22;8466;52.286;21.124;2023-05-23T09:14:50;22.10;69.70
16700;DHT22;8466;52.286;21.124;2023-05-23T09:17:18;22.20;68.10
16700;DHT22;8466;52.286;21.124;2023-05-23T09:19:48;22.40;69.00
16700;DHT22;8466;52.286;21.124;2023-05-23T09:22:23;22.50;67.50
16700;DHT22;8466;52.286;21.124;2023-05-23T09:24:53;22.60;67.90
16700;DHT22;8466;52.286;21.124;2023-05-23T09:27:24;22.70;68.80
16700;DHT22;8466;52.286;21.124;2023-05-23T09:29:53;22.80;70.30
16700;DHT22;8466;52.286;21.124;2023-05-23T09:32:21;23.00;68.10
16700;DHT22;8466;52.286;21.124;2023-05-23T09:34:55;23.30;67.30
16700;DHT22;8466;52.286;21.124;2023-05-23T09:37:30;23.50;65.00
16700;DHT22;8466;52.286;21.124;2023-05-23T09:40:02;23.70;65.00
16700;DHT22;8466;52.286;21.124;2023-05-23T09:42:35;23.60;64.00
16700;DHT22;8466;52.286;21.124;2023-05-23T09:45:10;23.60;66.00
16700;DHT22;8466;52.286;21.124;2023-05-23T09:47:38;23.70;65.20
16700;DHT22;8466;52.286;21.124;2023-05-23T09:50:08;23.80;61.40
16700;DHT22;8466;52.286;21.124;2023-05-23T09:52:40;24.00;65.00
16700;DHT22;8466;52.286;21.124;2023-05-23T09:55:09;24.20;67.50
16700;DHT22;8466;52.286;21.124;2023-05-23T09:57:41;24.30;62.60
16700;DHT22;8466;52.286;21.124;2023-05-23T10:00:11;24.30;62.20
16700;DHT22;8466;52.286;21.124;2023-05-23T10:03:03;24.40;61.90
16700;DHT22;8466;52.286;21.124;2023-05-23T10:05:37;24.50;60.70
16700;DHT22;8466;52.286;21.124;2023-05-23T10:08:08;24.70;59.30
16700;DHT22;8466;52.286;21.124;2023-05-23T10:13:59;24.70;58.30
16700;DHT22;8466;52.286;21.124;2023-05-23T10:16:36;24.60;59.20
16700;DHT22;8466;52.286;21.124;2023-05-23T10:19:10;24.50;61.30
16700;DHT22;8466;52.286;21.124;2023-05-23T10:21:43;24.40;58.70
16700;DHT22;8466;52.286;21.124;2023-05-23T10:24:16;24.40;58.30
16700;DHT22;8466;52.286;21.124;2023-05-23T10:26:47;24.20;58.20
16700;DHT22;8466;52.286;21.124;2023-05-23T10:29:17;24.10;57.80
16700;DHT22;8466;52.286;21.124;2023-05-23T10:31:46;24.00;59.00
16700;DHT22;8466;52.286;21.124;2023-05-23T10:34:22;24.10;59.80
16700;DHT22;8466;52.286;21.124;2023-05-23T10:36:58;24.10;59.00
16700;DHT22;8466;52.286;21.124;2023-05-23T10:39:35;24.30;59.80
16700;DHT22;8466;52.286;21.124;2023-05-23T10:42:16;24.50;61.10
16700;DHT22;8466;52.286;21.124;2023-05-23T10:44:46;24.70;57.30
16700;DHT22;8466;52.286;21.124;2023-05-23T10:47:24;24.90;57.80
16700;DHT22;8466;52.286;21.124;2023-05-23T10:49:54;25.10;57.70
16700;DHT22;8466;52.286;21.124;2023-05-23T10:52:23;25.30;55.60
16700;DHT22;8466;52.286;21.124;2023-05-23T10:54:54;25.40;56.30
16700;DHT22;8466;52.286;21.124;2023-05-23T10:57:25;25.40;54.90
16700;DHT22;8466;52.286;21.124;2023-05-23T10:59:56;25.50;58.20
16700;DHT22;8466;52.286;21.124;2023-05-23T11:02:26;25.70;55.80
16700;DHT22;8466;52.286;21.124;2023-05-23T11:05:20;25.90;57.50
16700;DHT22;8466;52.286;21.124;2023-05-23T11:08:09;26.00;56.60
16700;DHT22;8466;52.286;21.124;2023-05-23T11:10:52;26.20;54.70
16700;DHT22;8466;52.286;21.124;2023-05-23T11:13:22;26.30;54.80
16700;DHT22;8466;52.286;21.124;2023-05-23T11:15:52;26.40;55.60
16700;DHT22;8466;52.286;21.124;2023-05-23T11:18:22;26.40;55.00
16700;DHT22;8466;52.286;21.124;2023-05-23T11:20:54;26.20;53.90
16700;DHT22;8466;52.286;21.124;2023-05-23T11:23:53;26.00;54.20
16700;DHT22;8466;52.286;21.124;2023-05-23T11:26:29;25.90;54.60
16700;DHT22;8466;52.286;21.124;2023-05-23T11:28:58;25.80;56.30
16700;DHT22;8466;52.286;21.124;2023-05-23T11:31:36;25.70;55.40
16700;DHT22;8466;52.286;21.124;2023-05-23T11:34:06;25.60;54.80
16700;DHT22;8466;52.286;21.124;2023-05-23T11:36:35;25.40;55.00
16700;DHT22;8466;52.286;21.124;2023-05-23T11:39:04;25.30;54.80
16700;DHT22;8466;52.286;21.124;2023-05-23T11:41:41;25.10;57.30
16700;DHT22;8466;52.286;21.124;2023-05-23T11:44:11;25.00;57.20
16700;DHT22;8466;52.286;21.124;2023-05-23T11:46:58;25.00;57.40
16700;DHT22;8466;52.286;21.124;2023-05-23T11:49:29;25.10;57.30
16700;DHT22;8466;52.286;21.124;2023-05-23T11:52:00;25.20;57.50
16700;DHT22;8466;52.286;21.124;2023-05-23T11:54:29;25.30;57.60
16700;DHT22;8466;52.286;21.124;2023-05-23T11:56:58;25.40;56.40
16700;DHT22;8466;52.286;21.124;2023-05-23T11:59:27;25.40;56.60
16700;DHT22;8466;52.286;21.124;2023-05-23T12:01:57;25.40;56.00
16700;DHT22;8466;52.286;21.124;2023-05-23T12:04:26;25.30;57.30
16700;DHT22;8466;52.286;21.124;2023-05-23T12:06:55;25.40;57.00
16700;DHT22;8466;52.286;21.124;2023-05-23T12:09:24;25.40;56.40
16700;DHT22;8466;52.286;21.124;2023-05-23T12:11:52;25.60;58.50
16700;DHT22;8466;52.286;21.124;2023-05-23T12:14:34;25.80;57.00
16700;DHT22;8466;52.286;21.124;2023-05-23T12:17:19;26.00;56.30
16700;DHT22;8466;52.286;21.124;2023-05-23T12:19:49;26.20;54.80
16700;DHT22;8466;52.286;21.124;2023-05-23T12:22:22;26.20;55.90
16700;DHT22;8466;52.286;21.124;2023-05-23T12:24:52;26.20;56.10
16700;DHT22;8466;52.286;21.124;2023-05-23T12:27:26;26.10;55.80
16700;DHT22;8466;52.286;21.124;2023-05-23T12:30:07;26.00;54.50
16700;DHT22;8466;52.286;21.124;2023-05-23T12:32:38;25.80;57.10
16700;DHT22;8466;52.286;21.124;2023-05-23T12:35:09;25.60;57.10
16700;DHT22;8466;52.286;21.124;2023-05-23T12:37:39;25.40;56.40
16700;DHT22;8466;52.286;21.124;2023-05-23T12:40:11;25.30;56.10
16700;DHT22;8466;52.286;21.124;2023-05-23T12:42:49;25.30;55.90
16700;DHT22;8466;52.286;21.124;2023-05-23T12:45:31;25.30;56.70
16700;DHT22;8466;52.286;21.124;2023-05-23T12:48:34;25.30;56.30
16700;DHT22;8466;52.286;21.124;2023-05-23T12:51:03;25.30;55.70
16700;DHT22;8466;52.286;21.124;2023-05-23T12:53:32;25.30;56.10
16700;DHT22;8466;52.286;21.124;2023-05-23T12:56:02;25.20;56.50
16700;DHT22;8466;52.286;21.124;2023-05-23T12:58:31;25.20;57.20
16700;DHT22;8466;52.286;21.124;2023-05-23T13:01:01;25.10;57.70
16700;DHT22;8466;52.286;21.124;2023-05-23T13:03:31;25.10;58.00
16700;DHT22;8466;52.286;21.124;2023-05-23T13:06:04;25.20;57.00
16700;DHT22;8466;52.286;21.124;2023-05-23T13:08:33;25.20;56.20
16700;DHT22;8466;52.286;21.124;2023-05-23T13:11:02;25.20;56.60
16700;DHT22;8466;52.286;21.124;2023-05-23T13:13:31;25.40;56.50
16700;DHT22;8466;52.286;21.124;2023-05-23T13:16:00;25.40;57.40
16700;DHT22;8466;52.286;21.124;2023-05-23T13:18:29;25.50;56.40
16700;DHT22;8466;52.286;21.124;2023-05-23T13:20:59;25.70;56.50
16700;DHT22;8466;52.286;21.124;2023-05-23T13:23:28;25.80;55.70
16700;DHT22;8466;52.286;21.124;2023-05-23T13:25:57;25.80;55.80
16700;DHT22;8466;52.286;21.124;2023-05-23T13:28:26;25.90;55.40
16700;DHT22;8466;52.286;21.124;2023-05-23T13:30:54;26.00;56.40
16700;DHT22;8466;52.286;21.124;2023-05-23T13:33:23;26.00;54.80
16700;DHT22;8466;52.286;21.124;2023-05-23T13:35:52;26.10;55.40
16700;DHT22;8466;52.286;21.124;2023-05-23T13:38:23;26.10;55.20
16700;DHT22;8466;52.286;21.124;2023-05-23T13:40:53;26.20;56.00
16700;DHT22;8466;52.286;21.124;2023-05-23T13:43:22;26.20;57.40
16700;DHT22;8466;52.286;21.124;2023-05-23T13:45:54;26.10;57.40
16700;DHT22;8466;52.286;21.124;2023-05-23T13:48:23;26.00;56.40
16700;DHT22;8466;52.286;21.124;2023-05-23T13:50:53;25.90;55.50
16700;DHT22;8466;52.286;21.124;2023-05-23T13:53:24;25.60;55.10
16700;DHT22;8466;52.286;21.124;2023-05-23T13:55:54;25.40;55.60
16700;DHT22;8466;52.286;21.124;2023-05-23T13:58:22;25.30;56.20
16700;DHT22;8466;52.286;21.124;2023-05-23T14:00:51;25.10;56.20
16700;DHT22;8466;52.286;21.124;2023-05-23T14:03:20;25.00;56.90
16700;DHT22;8466;52.286;21.124;2023-05-23T14:05:50;24.90;57.00
16700;DHT22;8466;52.286;21.124;2023-05-23T14:08:19;24.80;57.30
16700;DHT22;8466;52.286;21.124;2023-05-23T14:10:50;24.80;56.70
16700;DHT22;8466;52.286;21.124;2023-05-23T14:13:19;24.80;57.30
16700;DHT22;8466;52.286;21.124;2023-05-23T14:15:49;24.90;57.80
16700;DHT22;8466;52.286;21.124;2023-05-23T14:18:19;25.00;59.40
16700;DHT22;8466;52.286;21.124;2023-05-23T14:20:48;25.10;57.30
16700;DHT22;8466;52.286;21.124;2023-05-23T14:23:17;25.20;57.00
16700;DHT22;8466;52.286;21.124;2023-05-23T14:25:46;25.20;56.20
16700;DHT22;8466;52.286;21.124;2023-05-23T14:28:16;25.20;57.30
16700;DHT22;8466;52.286;21.124;2023-05-23T14:30:45;25.10;56.70
16700;DHT22;8466;52.286;21.124;2023-05-23T14:33:14;25.20;57.00
16700;DHT22;8466;52.286;21.124;2023-05-23T14:35:43;25.20;57.50
16700;DHT22;8466;52.286;21.124;2023-05-23T14:38:12;25.30;57.00
16700;DHT22;8466;52.286;21.124;2023-05-23T14:40:41;25.40;56.90
16700;DHT22;8466;52.286;21.124;2023-05-23T14:43:10;25.40;57.50
16700;DHT22;8466;52.286;21.124;2023-05-23T14:45:41;25.40;57.10
16700;DHT22;8466;52.286;21.124;2023-05-23T14:48:10;25.50;57.70
16700;DHT22;8466;52.286;21.124;2023-05-23T14:50:39;25.60;56.80
16700;DHT22;8466;52.286;21.124;2023-05-23T14:53:08;25.80;57.10
16700;DHT22;8466;52.286;21.124;2023-05-23T14:55:37;26.00;56.20
16700;DHT22;8466;52.286;21.124;2023-05-23T14:58:06;26.40;54.80
16700;DHT22;8466;52.286;21.124;2023-05-23T15:00:35;27.00;56.00
16700;DHT22;8466;52.286;21.124;2023-05-23T15:03:06;27.50;53.70
16700;DHT22;8466;52.286;21.124;2023-05-23T15:05:35;27.70;53.40
16700;DHT22;8466;52.286;21.124;2023-05-23T15:08:03;28.00;52.60
16700;DHT22;8466;52.286;21.124;2023-05-23T15:10:32;28.20;53.40
16700;DHT22;8466;52.286;21.124;2023-05-23T15:13:01;28.40;52.80
16700;DHT22;8466;52.286;21.124;2023-05-23T15:15:30;28.60;52.80
16700;DHT22;8466;52.286;21.124;2023-05-23T15:18:05;28.70;51.20
16700;DHT22;8466;52.286;21.124;2023-05-23T15:20:36;28.70;51.80
16700;DHT22;8466;52.286;21.124;2023-05-23T15:23:05;28.60;52.10
16700;DHT22;8466;52.286;21.124;2023-05-23T15:25:34;28.60;51.00
16700;DHT22;8466;52.286;21.124;2023-05-23T15:28:15;28.50;50.90
16700;DHT22;8466;52.286;21.124;2023-05-23T15:30:44;28.30;50.90
16700;DHT22;8466;52.286;21.124;2023-05-23T15:33:14;28.50;50.80
16700;DHT22;8466;52.286;21.124;2023-05-23T15:35:43;28.80;51.30
16700;DHT22;8466;52.286;21.124;2023-05-23T15:38:12;29.20;50.00
16700;DHT22;8466;52.286;21.124;2023-05-23T15:40:47;29.30;49.20
16700;DHT22;8466;52.286;21.124;2023-05-23T15:43:19;28.90;48.50
16700;DHT22;8466;52.286;21.124;2023-05-23T15:45:49;28.50;48.80
16700;DHT22;8466;52.286;21.124;2023-05-23T15:48:20;28.20;50.70
16700;DHT22;8466;52.286;21.124;2023-05-23T15:50:49;27.90;51.30
16700;DHT22;8466;52.286;21.124;2023-05-23T15:53:18;27.60;50.20
16700;DHT22;8466;52.286;21.124;2023-05-23T15:55:48;27.50;51.50
16700;DHT22;8466;52.286;21.124;2023-05-23T15:58:17;27.30;51.40
16700;DHT22;8466;52.286;21.124;2023-05-23T16:00:46;27.20;52.30
16700;DHT22;8466;52.286;21.124;2023-05-23T16:03:15;27.10;53.00